Aviation Digital Data Service (ADDS)

Output produced by METARs form (0058 UTC 22 September 2017)
found at http://www.aviationweather.gov/adds/metars/
 
TAF EEEI 212330Z 2200/2224 08010KT 9999 SCT020 
     PROB40 
     TEMPO 2202/2205 4000 BR BKN006 
     TEMPO 2206/2208 5000 SHRA BKN012 SCT035TCU 
     TEMPO 2219/2224 2000 BR MIFG SCT003
       
EEKE 220050Z AUTO 07011KT 9999NDV OVC015 13/11 Q1021
EETN 220050Z 07012KT CAVOK 12/10 Q1024
TAF EETN 212317Z 2200/2224 08015KT 9999 SCT020 
     TEMPO 2200/2202 SHRA BKN010 SCT020CB 
     TEMPO 2202/2207 4000 BR BKN004 
     BECMG 2218/2220 VRB02KT 
     PROB30 
     TEMPO 2218/2224 2000 BR SCT003
       
EETU 220050Z AUTO 08010KT 9999 SCT130/// 12/10 Q1023
TAF EETU 212000Z 2121/2203 08015KT 9999 BKN020 
     TEMPO 2121/2124 4000 SHRA BKN006 SCT015CB 
     PROB30 
     TEMPO 2121/2123 TSRA 
     PROB40 
     TEMPO 2200/2203 3000 RA BR BKN004